sensor_id;sensor_type;location;lat;lon;timestamp;pressure;altitude;pressure_sealevel;temperature;humidity
22333;BME280;11334;36.986;-121.936;2023-04-23T00:00:42;100907.94;;;30.00;36.98
22333;BME280;11334;36.986;-121.936;2023-04-23T00:03:10;100901.34;;;30.21;36.29
22333;BME280;11334;36.986;-121.936;2023-04-23T00:05:39;100897.66;;;30.45;35.80
22333;BME280;11334;36.986;-121.936;2023-04-23T00:08:07;100894.78;;;30.75;35.69
22333;BME280;11334;36.986;-121.936;2023-04-23T00:10:35;100888.53;;;31.02;35.12
22333;BME280;11334;36.986;-121.936;2023-04-23T00:13:02;100894.97;;;31.26;34.37
22333;BME280;11334;36.986;-121.936;2023-04-23T00:15:29;100881.34;;;31.44;34.34
22333;BME280;11334;36.986;-121.936;2023-04-23T00:17:55;100882.41;;;31.76;34.55
22333;BME280;11334;36.986;-121.936;2023-04-23T00:20:22;100885.91;;;32.05;33.80
22333;BME280;11334;36.986;-121.936;2023-04-23T00:22:48;100880.47;;;32.00;33.94
22333;BME280;11334;36.986;-121.936;2023-04-23T00:25:14;100885.66;;;32.24;33.72
22333;BME280;11334;36.986;-121.936;2023-04-23T00:27:40;100887.25;;;32.90;32.68
22333;BME280;11334;36.986;-121.936;2023-04-23T00:30:07;100876.06;;;33.18;32.19
22333;BME280;11334;36.986;-121.936;2023-04-23T00:32:33;100889.72;;;33.54;31.25
22333;BME280;11334;36.986;-121.936;2023-04-23T00:35:00;100890.31;;;33.83;31.28
22333;BME280;11334;36.986;-121.936;2023-04-23T00:37:26;100878.38;;;33.87;30.98
22333;BME280;11334;36.986;-121.936;2023-04-23T00:39:52;100886.25;;;34.20;30.58
22333;BME280;11334;36.986;-121.936;2023-04-23T00:42:18;100889.00;;;33.94;30.75
22333;BME280;11334;36.986;-121.936;2023-04-23T00:44:45;100892.25;;;34.22;30.44
22333;BME280;11334;36.986;-121.936;2023-04-23T00:47:13;100887.06;;;34.47;30.40
22333;BME280;11334;36.986;-121.936;2023-04-23T00:49:41;100889.47;;;34.49;29.98
22333;BME280;11334;36.986;-121.936;2023-04-23T00:52:08;100892.84;;;34.72;29.77
22333;BME280;11334;36.986;-121.936;2023-04-23T00:54:34;100892.59;;;34.82;29.63
22333;BME280;11334;36.986;-121.936;2023-04-23T00:57:00;100887.94;;;34.70;29.16
22333;BME280;11334;36.986;-121.936;2023-04-23T00:59:28;100883.72;;;34.24;29.91
22333;BME280;11334;36.986;-121.936;2023-04-23T01:01:56;100886.63;;;34.14;29.81
22333;BME280;11334;36.986;-121.936;2023-04-23T01:04:23;100894.47;;;34.07;29.87
22333;BME280;11334;36.986;-121.936;2023-04-23T01:06:52;100894.34;;;33.72;30.63
22333;BME280;11334;36.986;-121.936;2023-04-23T01:09:19;100895.94;;;33.60;30.47
22333;BME280;11334;36.986;-121.936;2023-04-23T01:11:46;100897.13;;;33.41;31.27
22333;BME280;11334;36.986;-121.936;2023-04-23T01:14:13;100894.28;;;32.96;31.45
22333;BME280;11334;36.986;-121.936;2023-04-23T01:16:40;100890.56;;;32.50;31.98
22333;BME280;11334;36.986;-121.936;2023-04-23T01:19:08;100894.03;;;31.91;32.83
22333;BME280;11334;36.986;-121.936;2023-04-23T01:21:37;100905.09;;;31.25;33.40
22333;BME280;11334;36.986;-121.936;2023-04-23T01:24:07;100889.78;;;30.86;34.57
22333;BME280;11334;36.986;-121.936;2023-04-23T01:26:33;100901.06;;;30.22;35.97
22333;BME280;11334;36.986;-121.936;2023-04-23T01:29:00;100898.19;;;29.65;35.87
22333;BME280;11334;36.986;-121.936;2023-04-23T01:31:26;100895.75;;;29.29;36.97
22333;BME280;11334;36.986;-121.936;2023-04-23T01:33:53;100884.75;;;28.65;38.38
22333;BME280;11334;36.986;-121.936;2023-04-23T01:36:24;100896.63;;;28.25;38.72
22333;BME280;11334;36.986;-121.936;2023-04-23T01:38:51;100890.81;;;27.61;39.80
22333;BME280;11334;36.986;-121.936;2023-04-23T01:41:18;100889.97;;;26.93;40.97
22333;BME280;11334;36.986;-121.936;2023-04-23T01:43:47;100905.47;;;26.67;41.51
22333;BME280;11334;36.986;-121.936;2023-04-23T01:46:13;100908.56;;;26.28;42.42
22333;BME280;11334;36.986;-121.936;2023-04-23T01:48:39;100903.00;;;25.80;43.42
22333;BME280;11334;36.986;-121.936;2023-04-23T01:51:06;100910.22;;;25.54;43.63
22333;BME280;11334;36.986;-121.936;2023-04-23T01:53:33;100902.41;;;25.08;45.52
22333;BME280;11334;36.986;-121.936;2023-04-23T01:56:00;100909.72;;;24.64;46.30
22333;BME280;11334;36.986;-121.936;2023-04-23T01:58:27;100910.66;;;24.31;47.34
22333;BME280;11334;36.986;-121.936;2023-04-23T02:00:53;100912.50;;;23.91;48.18
22333;BME280;11334;36.986;-121.936;2023-04-23T02:03:19;100906.19;;;23.52;49.84
22333;BME280;11334;36.986;-121.936;2023-04-23T02:05:46;100903.91;;;23.26;51.26
22333;BME280;11334;36.986;-121.936;2023-04-23T02:08:13;100905.75;;;22.92;52.25
22333;BME280;11334;36.986;-121.936;2023-04-23T02:10:39;100918.53;;;22.85;53.03
22333;BME280;11334;36.986;-121.936;2023-04-23T02:13:05;100914.22;;;22.66;53.92
22333;BME280;11334;36.986;-121.936;2023-04-23T02:15:32;100906.34;;;22.36;54.66
22333;BME280;11334;36.986;-121.936;2023-04-23T02:17:58;100915.13;;;21.96;56.66
22333;BME280;11334;36.986;-121.936;2023-04-23T02:20:24;100914.50;;;21.58;58.23
22333;BME280;11334;36.986;-121.936;2023-04-23T02:22:51;100919.09;;;21.58;58.69
22333;BME280;11334;36.986;-121.936;2023-04-23T02:25:17;100914.94;;;21.38;58.97
22333;BME280;11334;36.986;-121.936;2023-04-23T02:27:47;100925.41;;;21.22;60.09
22333;BME280;11334;36.986;-121.936;2023-04-23T02:30:13;100923.44;;;21.11;60.86
22333;BME280;11334;36.986;-121.936;2023-04-23T02:32:40;100928.84;;;20.80;62.10
22333;BME280;11334;36.986;-121.936;2023-04-23T02:35:07;100931.13;;;20.83;61.78
22333;BME280;11334;36.986;-121.936;2023-04-23T02:37:36;100918.41;;;20.59;62.34
22333;BME280;11334;36.986;-121.936;2023-04-23T02:40:02;100926.28;;;20.61;62.37
22333;BME280;11334;36.986;-121.936;2023-04-23T02:42:31;100921.19;;;20.40;63.19
22333;BME280;11334;36.986;-121.936;2023-04-23T02:44:57;100916.50;;;20.23;64.15
22333;BME280;11334;36.986;-121.936;2023-04-23T02:47:24;100913.69;;;20.12;64.99
22333;BME280;11334;36.986;-121.936;2023-04-23T02:49:50;100918.63;;;20.08;64.82
22333;BME280;11334;36.986;-121.936;2023-04-23T02:52:16;100911.06;;;19.93;65.06
22333;BME280;11334;36.986;-121.936;2023-04-23T02:54:44;100909.22;;;19.87;65.46
22333;BME280;11334;36.986;-121.936;2023-04-23T02:57:10;100924.94;;;19.90;65.27
22333;BME280;11334;36.986;-121.936;2023-04-23T02:59:39;100923.06;;;19.90;65.16
22333;BME280;11334;36.986;-121.936;2023-04-23T03:02:05;100924.75;;;19.78;66.06
22333;BME280;11334;36.986;-121.936;2023-04-23T03:04:31;100915.88;;;19.65;66.83
22333;BME280;11334;36.986;-121.936;2023-04-23T03:06:57;100926.41;;;19.54;67.61
22333;BME280;11334;36.986;-121.936;2023-04-23T03:09:24;100927.91;;;19.50;67.62
22333;BME280;11334;36.986;-121.936;2023-04-23T03:11:50;100934.72;;;19.39;68.19
22333;BME280;11334;36.986;-121.936;2023-04-23T03:14:16;100933.47;;;19.29;68.50
22333;BME280;11334;36.986;-121.936;2023-04-23T03:16:42;100939.50;;;19.18;68.92
22333;BME280;11334;36.986;-121.936;2023-04-23T03:19:09;100942.38;;;19.10;69.98
22333;BME280;11334;36.986;-121.936;2023-04-23T03:21:35;100940.53;;;19.11;69.11
22333;BME280;11334;36.986;-121.936;2023-04-23T03:24:01;100942.97;;;19.12;69.24
22333;BME280;11334;36.986;-121.936;2023-04-23T03:26:27;100942.56;;;18.96;70.07
22333;BME280;11334;36.986;-121.936;2023-04-23T03:28:54;100948.31;;;18.80;70.60
22333;BME280;11334;36.986;-121.936;2023-04-23T03:31:20;100947.44;;;18.67;71.85
22333;BME280;11334;36.986;-121.936;2023-04-23T03:33:46;100945.19;;;18.64;71.79
22333;BME280;11334;36.986;-121.936;2023-04-23T03:36:13;100935.66;;;18.62;71.77
22333;BME280;11334;36.986;-121.936;2023-04-23T03:38:40;100936.47;;;18.49;72.74
22333;BME280;11334;36.986;-121.936;2023-04-23T03:41:06;100922.19;;;18.42;72.07
22333;BME280;11334;36.986;-121.936;2023-04-23T03:43:32;100931.47;;;18.40;72.75
22333;BME280;11334;36.986;-121.936;2023-04-23T03:45:58;100945.72;;;18.40;73.17
22333;BME280;11334;36.986;-121.936;2023-04-23T03:48:25;100950.25;;;18.40;73.54
22333;BME280;11334;36.986;-121.936;2023-04-23T03:50:51;100953.75;;;18.34;74.01
22333;BME280;11334;36.986;-121.936;2023-04-23T03:53:17;100968.59;;;18.24;74.17
22333;BME280;11334;36.986;-121.936;2023-04-23T03:55:44;100965.94;;;17.97;75.94
22333;BME280;11334;36.986;-121.936;2023-04-23T03:58:10;100970.38;;;18.10;75.41
22333;BME280;11334;36.986;-121.936;2023-04-23T04:00:36;100969.63;;;17.96;75.87
22333;BME280;11334;36.986;-121.936;2023-04-23T04:03:02;100972.91;;;17.91;76.14
22333;BME280;11334;36.986;-121.936;2023-04-23T04:05:29;100973.75;;;17.92;76.53
22333;BME280;11334;36.986;-121.936;2023-04-23T04:07:55;100978.25;;;17.85;76.61
22333;BME280;11334;36.986;-121.936;2023-04-23T04:10:21;100978.44;;;17.83;76.17
22333;BME280;11334;36.986;-121.936;2023-04-23T04:12:48;100984.81;;;17.82;76.35
22333;BME280;11334;36.986;-121.936;2023-04-23T04:15:14;100984.06;;;17.61;77.23
22333;BME280;11334;36.986;-121.936;2023-04-23T04:17:42;100983.19;;;17.54;77.34
22333;BME280;11334;36.986;-121.936;2023-04-23T04:20:10;100989.16;;;17.56;77.37
22333;BME280;11334;36.986;-121.936;2023-04-23T04:22:37;100993.94;;;17.61;77.67
22333;BME280;11334;36.986;-121.936;2023-04-23T04:25:03;100996.53;;;17.48;77.87
22333;BME280;11334;36.986;-121.936;2023-04-23T04:27:30;100989.88;;;17.38;78.29
22333;BME280;11334;36.986;-121.936;2023-04-23T04:29:59;100995.47;;;17.42;77.92
22333;BME280;11334;36.986;-121.936;2023-04-23T04:32:31;100994.25;;;17.24;78.28
22333;BME280;11334;36.986;-121.936;2023-04-23T04:34:57;100989.38;;;17.28;77.79
22333;BME280;11334;36.986;-121.936;2023-04-23T04:37:23;101001.19;;;17.12;78.74
22333;BME280;11334;36.986;-121.936;2023-04-23T04:39:50;101002.91;;;17.20;77.57
22333;BME280;11334;36.986;-121.936;2023-04-23T04:42:16;101001.19;;;17.12;77.75
22333;BME280;11334;36.986;-121.936;2023-04-23T04:44:42;100999.75;;;16.96;78.87
22333;BME280;11334;36.986;-121.936;2023-04-23T04:47:09;100989.59;;;16.91;79.01
22333;BME280;11334;36.986;-121.936;2023-04-23T04:49:35;100997.00;;;16.89;79.56
22333;BME280;11334;36.986;-121.936;2023-04-23T04:52:03;101003.38;;;16.88;79.76
22333;BME280;11334;36.986;-121.936;2023-04-23T04:54:29;101003.56;;;16.87;79.24
22333;BME280;11334;36.986;-121.936;2023-04-23T04:56:55;101000.81;;;16.80;79.74
22333;BME280;11334;36.986;-121.936;2023-04-23T04:59:21;101001.66;;;16.81;80.06
22333;BME280;11334;36.986;-121.936;2023-04-23T05:01:48;100996.84;;;16.76;79.91
22333;BME280;11334;36.986;-121.936;2023-04-23T05:04:14;101003.50;;;16.80;79.20
22333;BME280;11334;36.986;-121.936;2023-04-23T05:06:40;101009.03;;;16.79;79.39
22333;BME280;11334;36.986;-121.936;2023-04-23T05:09:06;101004.88;;;16.76;79.27
22333;BME280;11334;36.986;-121.936;2023-04-23T05:11:33;101011.31;;;16.61;80.38
22333;BME280;11334;36.986;-121.936;2023-04-23T05:14:00;101010.91;;;16.64;80.28
22333;BME280;11334;36.986;-121.936;2023-04-23T05:16:26;101005.47;;;16.58;80.43
22333;BME280;11334;36.986;-121.936;2023-04-23T05:18:52;101020.94;;;16.42;81.77
22333;BME280;11334;36.986;-121.936;2023-04-23T05:21:19;101001.84;;;16.30;81.86
22333;BME280;11334;36.986;-121.936;2023-04-23T05:23:45;101012.53;;;16.44;81.39
22333;BME280;11334;36.986;-121.936;2023-04-23T05:26:11;101006.75;;;16.41;81.13
22333;BME280;11334;36.986;-121.936;2023-04-23T05:28:37;101008.06;;;16.31;81.88
22333;BME280;11334;36.986;-121.936;2023-04-23T05:31:04;101017.63;;;16.25;81.93
22333;BME280;11334;36.986;-121.936;2023-04-23T05:33:30;101017.34;;;16.20;82.08
22333;BME280;11334;36.986;-121.936;2023-04-23T05:35:57;101008.78;;;16.25;81.90
22333;BME280;11334;36.986;-121.936;2023-04-23T05:38:23;101010.63;;;16.24;81.86
22333;BME280;11334;36.986;-121.936;2023-04-23T05:40:50;101010.09;;;16.14;82.42
22333;BME280;11334;36.986;-121.936;2023-04-23T05:43:16;101009.63;;;16.11;82.48
22333;BME280;11334;36.986;-121.936;2023-04-23T05:45:42;101009.25;;;16.00;82.98
22333;BME280;11334;36.986;-121.936;2023-04-23T05:48:08;101004.16;;;16.05;82.74
22333;BME280;11334;36.986;-121.936;2023-04-23T05:50:35;101011.81;;;16.08;82.40
22333;BME280;11334;36.986;-121.936;2023-04-23T05:53:01;101009.25;;;16.00;82.12
22333;BME280;11334;36.986;-121.936;2023-04-23T05:55:28;100999.63;;;15.91;82.88
22333;BME280;11334;36.986;-121.936;2023-04-23T05:57:54;101002.31;;;15.91;82.94
22333;BME280;11334;36.986;-121.936;2023-04-23T06:00:20;101009.59;;;15.82;83.57
22333;BME280;11334;36.986;-121.936;2023-04-23T06:02:47;100992.91;;;15.80;83.69
22333;BME280;11334;36.986;-121.936;2023-04-23T06:05:13;100994.94;;;15.79;83.82
22333;BME280;11334;36.986;-121.936;2023-04-23T06:07:39;100993.56;;;15.68;84.19
22333;BME280;11334;36.986;-121.936;2023-04-23T06:10:06;100980.69;;;15.72;84.08
22333;BME280;11334;36.986;-121.936;2023-04-23T06:12:33;100979.94;;;15.78;83.22
22333;BME280;11334;36.986;-121.936;2023-04-23T06:14:59;100977.34;;;15.70;83.72
22333;BME280;11334;36.986;-121.936;2023-04-23T06:17:26;100981.47;;;15.58;84.55
22333;BME280;11334;36.986;-121.936;2023-04-23T06:19:52;100981.38;;;15.51;85.12
22333;BME280;11334;36.986;-121.936;2023-04-23T06:22:18;100988.09;;;15.48;85.09
22333;BME280;11334;36.986;-121.936;2023-04-23T06:24:44;100993.06;;;15.50;85.00
22333;BME280;11334;36.986;-121.936;2023-04-23T06:27:12;100984.78;;;15.46;85.20
22333;BME280;11334;36.986;-121.936;2023-04-23T06:29:38;100988.19;;;15.40;85.58
22333;BME280;11334;36.986;-121.936;2023-04-23T06:32:04;100982.72;;;15.33;86.24
22333;BME280;11334;36.986;-121.936;2023-04-23T06:34:31;100984.38;;;15.34;86.54
22333;BME280;11334;36.986;-121.936;2023-04-23T06:36:57;100982.84;;;15.40;85.70
22333;BME280;11334;36.986;-121.936;2023-04-23T06:39:23;100983.19;;;15.37;85.72
22333;BME280;11334;36.986;-121.936;2023-04-23T06:41:50;100987.78;;;15.28;86.10
22333;BME280;11334;36.986;-121.936;2023-04-23T06:44:16;100992.00;;;15.23;86.98
22333;BME280;11334;36.986;-121.936;2023-04-23T06:46:42;100999.06;;;15.16;86.90
22333;BME280;11334;36.986;-121.936;2023-04-23T06:49:08;101006.34;;;15.22;86.94
22333;BME280;11334;36.986;-121.936;2023-04-23T06:51:35;100999.22;;;15.15;87.29
22333;BME280;11334;36.986;-121.936;2023-04-23T06:54:01;100984.28;;;15.06;87.48
22333;BME280;11334;36.986;-121.936;2023-04-23T06:56:27;100990.34;;;15.00;88.04
22333;BME280;11334;36.986;-121.936;2023-04-23T06:58:53;100995.31;;;15.03;87.77
22333;BME280;11334;36.986;-121.936;2023-04-23T07:01:19;101001.31;;;15.05;87.40
22333;BME280;11334;36.986;-121.936;2023-04-23T07:03:46;101004.44;;;15.08;86.75
22333;BME280;11334;36.986;-121.936;2023-04-23T07:06:17;100999.34;;;14.99;87.55
22333;BME280;11334;36.986;-121.936;2023-04-23T07:08:43;100980.72;;;14.91;87.54
22333;BME280;11334;36.986;-121.936;2023-04-23T07:11:13;100990.22;;;14.93;87.70
22333;BME280;11334;36.986;-121.936;2023-04-23T07:13:39;100991.25;;;14.92;87.80
22333;BME280;11334;36.986;-121.936;2023-04-23T07:16:07;100996.38;;;14.94;87.82
22333;BME280;11334;36.986;-121.936;2023-04-23T07:18:33;100995.44;;;14.87;88.15
22333;BME280;11334;36.986;-121.936;2023-04-23T07:20:59;100995.97;;;14.83;88.66
22333;BME280;11334;36.986;-121.936;2023-04-23T07:23:25;101005.28;;;14.86;88.43
22333;BME280;11334;36.986;-121.936;2023-04-23T07:25:52;101001.47;;;14.81;88.18
22333;BME280;11334;36.986;-121.936;2023-04-23T07:28:18;101009.31;;;14.83;87.97
22333;BME280;11334;36.986;-121.936;2023-04-23T07:30:44;100996.00;;;14.75;87.87
22333;BME280;11334;36.986;-121.936;2023-04-23T07:33:11;100997.19;;;14.72;87.08
22333;BME280;11334;36.986;-121.936;2023-04-23T07:35:37;100999.56;;;14.67;87.56
22333;BME280;11334;36.986;-121.936;2023-04-23T07:38:03;100996.59;;;14.62;87.78
22333;BME280;11334;36.986;-121.936;2023-04-23T07:40:30;100996.13;;;14.59;87.58
22333;BME280;11334;36.986;-121.936;2023-04-23T07:42:56;100995.38;;;14.51;88.36
22333;BME280;11334;36.986;-121.936;2023-04-23T07:45:24;101002.03;;;14.47;88.57
22333;BME280;11334;36.986;-121.936;2023-04-23T07:47:50;101002.69;;;14.49;88.45
22333;BME280;11334;36.986;-121.936;2023-04-23T07:50:16;100987.22;;;14.44;87.27
22333;BME280;11334;36.986;-121.936;2023-04-23T07:52:42;101003.53;;;14.49;87.65
22333;BME280;11334;36.986;-121.936;2023-04-23T07:55:09;101004.75;;;14.39;87.83
22333;BME280;11334;36.986;-121.936;2023-04-23T07:57:35;101003.94;;;14.38;88.01
22333;BME280;11334;36.986;-121.936;2023-04-23T08:00:02;100992.59;;;14.36;88.46
22333;BME280;11334;36.986;-121.936;2023-04-23T08:02:28;101000.28;;;14.31;88.51
22333;BME280;11334;36.986;-121.936;2023-04-23T08:04:54;101004.28;;;14.27;88.18
22333;BME280;11334;36.986;-121.936;2023-04-23T08:07:21;101005.47;;;14.25;88.44
22333;BME280;11334;36.986;-121.936;2023-04-23T08:09:47;101003.97;;;14.22;88.08
22333;BME280;11334;36.986;-121.936;2023-04-23T08:12:13;101007.03;;;14.12;88.60
22333;BME280;11334;36.986;-121.936;2023-04-23T08:14:43;100997.03;;;14.14;88.50
22333;BME280;11334;36.986;-121.936;2023-04-23T08:17:12;101000.56;;;14.06;89.04
22333;BME280;11334;36.986;-121.936;2023-04-23T08:19:38;101003.56;;;14.03;89.26
22333;BME280;11334;36.986;-121.936;2023-04-23T08:22:04;101003.09;;;14.00;89.02
22333;BME280;11334;36.986;-121.936;2023-04-23T08:24:30;101009.44;;;13.99;89.60
22333;BME280;11334;36.986;-121.936;2023-04-23T08:26:57;101002.41;;;13.90;90.39
22333;BME280;11334;36.986;-121.936;2023-04-23T08:29:23;101003.09;;;13.92;90.37
22333;BME280;11334;36.986;-121.936;2023-04-23T08:31:49;100991.75;;;13.90;90.60
22333;BME280;11334;36.986;-121.936;2023-04-23T08:34:16;100994.13;;;13.85;91.13
22333;BME280;11334;36.986;-121.936;2023-04-23T08:36:42;100996.63;;;13.87;91.11
22333;BME280;11334;36.986;-121.936;2023-04-23T08:39:08;100978.59;;;13.88;90.76
22333;BME280;11334;36.986;-121.936;2023-04-23T08:41:38;100968.81;;;13.89;90.46
22333;BME280;11334;36.986;-121.936;2023-04-23T08:44:20;100974.81;;;13.83;90.79
22333;BME280;11334;36.986;-121.936;2023-04-23T08:46:48;100981.97;;;13.83;90.53
22333;BME280;11334;36.986;-121.936;2023-04-23T08:49:16;100978.47;;;13.82;91.21
22333;BME280;11334;36.986;-121.936;2023-04-23T08:51:58;100988.13;;;13.83;90.25
22333;BME280;11334;36.986;-121.936;2023-04-23T08:54:31;100992.81;;;13.81;89.78
22333;BME280;11334;36.986;-121.936;2023-04-23T08:56:59;100996.09;;;13.83;89.75
22333;BME280;11334;36.986;-121.936;2023-04-23T08:59:29;100988.50;;;13.72;90.37
22333;BME280;11334;36.986;-121.936;2023-04-23T09:01:56;100991.31;;;13.71;90.00
22333;BME280;11334;36.986;-121.936;2023-04-23T09:04:24;100992.84;;;13.65;90.72
22333;BME280;11334;36.986;-121.936;2023-04-23T09:06:51;100981.19;;;13.58;90.64
22333;BME280;11334;36.986;-121.936;2023-04-23T09:09:19;100991.84;;;13.58;91.02
22333;BME280;11334;36.986;-121.936;2023-04-23T09:11:48;101000.03;;;13.57;91.02
22333;BME280;11334;36.986;-121.936;2023-04-23T09:14:15;100985.34;;;13.61;90.47
22333;BME280;11334;36.986;-121.936;2023-04-23T09:16:41;100965.75;;;13.46;91.35
22333;BME280;11334;36.986;-121.936;2023-04-23T09:19:10;100974.59;;;13.47;92.07
22333;BME280;11334;36.986;-121.936;2023-04-23T09:21:38;100970.22;;;13.54;91.30
22333;BME280;11334;36.986;-121.936;2023-04-23T09:24:13;100962.09;;;13.47;90.98
22333;BME280;11334;36.986;-121.936;2023-04-23T09:26:58;100953.47;;;13.37;91.72
22333;BME280;11334;36.986;-121.936;2023-04-23T09:29:25;100960.63;;;13.37;91.94
22333;BME280;11334;36.986;-121.936;2023-04-23T09:31:53;100950.63;;;13.39;92.17
22333;BME280;11334;36.986;-121.936;2023-04-23T09:34:21;100948.50;;;13.34;92.40
22333;BME280;11334;36.986;-121.936;2023-04-23T09:36:50;100952.50;;;13.30;92.55
22333;BME280;11334;36.986;-121.936;2023-04-23T09:39:18;100945.31;;;13.31;92.93
22333;BME280;11334;36.986;-121.936;2023-04-23T09:41:46;100960.94;;;13.34;92.27
22333;BME280;11334;36.986;-121.936;2023-04-23T09:44:20;100953.97;;;13.33;92.72
22333;BME280;11334;36.986;-121.936;2023-04-23T09:46:51;100959.66;;;13.30;93.25
22333;BME280;11334;36.986;-121.936;2023-04-23T09:49:17;100955.84;;;13.25;93.02
22333;BME280;11334;36.986;-121.936;2023-04-23T09:51:46;100964.66;;;13.17;94.21
22333;BME280;11334;36.986;-121.936;2023-04-23T09:54:17;100952.00;;;13.11;94.10
22333;BME280;11334;36.986;-121.936;2023-04-23T09:56:48;100963.63;;;13.26;94.04
22333;BME280;11334;36.986;-121.936;2023-04-23T09:59:27;100960.00;;;13.27;93.02
22333;BME280;11334;36.986;-121.936;2023-04-23T10:01:54;100957.31;;;13.27;92.67
22333;BME280;11334;36.986;-121.936;2023-04-23T10:04:24;100955.66;;;13.26;92.65
22333;BME280;11334;36.986;-121.936;2023-04-23T10:06:58;100947.00;;;13.24;92.68
22333;BME280;11334;36.986;-121.936;2023-04-23T10:09:26;100952.31;;;13.24;92.83
22333;BME280;11334;36.986;-121.936;2023-04-23T10:11:58;100952.69;;;13.13;93.03
22333;BME280;11334;36.986;-121.936;2023-04-23T10:14:25;100955.66;;;13.18;92.51
22333;BME280;11334;36.986;-121.936;2023-04-23T10:16:57;100949.31;;;13.19;92.30
22333;BME280;11334;36.986;-121.936;2023-04-23T10:19:24;100956.84;;;13.16;92.88
22333;BME280;11334;36.986;-121.936;2023-04-23T10:21:55;100957.63;;;13.24;92.65
22333;BME280;11334;36.986;-121.936;2023-04-23T10:24:26;100957.00;;;13.06;92.71
22333;BME280;11334;36.986;-121.936;2023-04-23T10:26:59;100948.69;;;13.09;92.65
22333;BME280;11334;36.986;-121.936;2023-04-23T10:29:33;100962.16;;;13.08;92.88
22333;BME280;11334;36.986;-121.936;2023-04-23T10:32:04;100957.19;;;13.05;92.72
22333;BME280;11334;36.986;-121.936;2023-04-23T10:34:31;100948.88;;;13.00;92.94
22333;BME280;11334;36.986;-121.936;2023-04-23T10:37:00;100957.50;;;12.94;93.37
22333;BME280;11334;36.986;-121.936;2023-04-23T10:39:32;100946.72;;;12.88;93.63
22333;BME280;11334;36.986;-121.936;2023-04-23T10:41:59;100956.69;;;12.94;93.96
22333;BME280;11334;36.986;-121.936;2023-04-23T10:44:36;100959.50;;;13.00;93.54
22333;BME280;11334;36.986;-121.936;2023-04-23T10:47:04;100950.69;;;12.99;94.19
22333;BME280;11334;36.986;-121.936;2023-04-23T10:49:32;100958.31;;;12.94;94.33
22333;BME280;11334;36.986;-121.936;2023-04-23T10:54:31;100950.69;;;12.84;94.98
22333;BME280;11334;36.986;-121.936;2023-04-23T10:57:05;100949.72;;;12.93;93.73
22333;BME280;11334;36.986;-121.936;2023-04-23T10:59:33;100945.03;;;12.87;93.53
22333;BME280;11334;36.986;-121.936;2023-04-23T11:02:11;100952.03;;;12.88;93.34
22333;BME280;11334;36.986;-121.936;2023-04-23T11:04:44;100951.84;;;12.89;93.04
22333;BME280;11334;36.986;-121.936;2023-04-23T11:07:12;100953.34;;;12.84;93.57
22333;BME280;11334;36.986;-121.936;2023-04-23T11:09:45;100941.72;;;12.77;94.21
22333;BME280;11334;36.986;-121.936;2023-04-23T11:14:52;100942.00;;;12.74;94.28
22333;BME280;11334;36.986;-121.936;2023-04-23T11:20:21;100942.34;;;12.63;94.53
22333;BME280;11334;36.986;-121.936;2023-04-23T11:22:49;100948.00;;;12.68;94.93
22333;BME280;11334;36.986;-121.936;2023-04-23T11:25:26;100944.34;;;12.69;94.56
22333;BME280;11334;36.986;-121.936;2023-04-23T11:27:54;100948.97;;;12.67;94.40
22333;BME280;11334;36.986;-121.936;2023-04-23T11:30:23;100950.31;;;12.71;94.49
22333;BME280;11334;36.986;-121.936;2023-04-23T11:32:51;100946.31;;;12.67;93.77
22333;BME280;11334;36.986;-121.936;2023-04-23T11:35:23;100943.19;;;12.63;93.72
22333;BME280;11334;36.986;-121.936;2023-04-23T11:37:53;100956.47;;;12.56;94.36
22333;BME280;11334;36.986;-121.936;2023-04-23T11:40:21;100953.97;;;12.62;93.58
22333;BME280;11334;36.986;-121.936;2023-04-23T11:42:50;100960.63;;;12.66;92.83
22333;BME280;11334;36.986;-121.936;2023-04-23T11:45:28;100956.63;;;12.62;92.97
22333;BME280;11334;36.986;-121.936;2023-04-23T11:47:56;100959.28;;;12.54;93.89
22333;BME280;11334;36.986;-121.936;2023-04-23T11:50:24;100957.44;;;12.55;93.99
22333;BME280;11334;36.986;-121.936;2023-04-23T11:52:51;100959.25;;;12.46;93.76
22333;BME280;11334;36.986;-121.936;2023-04-23T11:55:19;100944.63;;;12.34;94.92
22333;BME280;11334;36.986;-121.936;2023-04-23T11:57:46;100952.31;;;12.45;94.72
22333;BME280;11334;36.986;-121.936;2023-04-23T12:00:18;100962.06;;;12.45;94.58
22333;BME280;11334;36.986;-121.936;2023-04-23T12:02:53;100944.63;;;12.42;94.88
22333;BME280;11334;36.986;-121.936;2023-04-23T12:05:30;100953.81;;;12.48;94.64
22333;BME280;11334;36.986;-121.936;2023-04-23T12:08:17;100958.44;;;12.54;95.05
22333;BME280;11334;36.986;-121.936;2023-04-23T12:13:16;100953.28;;;12.44;94.62
22333;BME280;11334;36.986;-121.936;2023-04-23T12:15:46;100958.78;;;12.43;94.84
22333;BME280;11334;36.986;-121.936;2023-04-23T12:18:12;100964.44;;;12.48;95.56
22333;BME280;11334;36.986;-121.936;2023-04-23T12:20:38;100967.56;;;12.43;96.41
22333;BME280;11334;36.986;-121.936;2023-04-23T12:23:05;100951.09;;;12.40;96.79
22333;BME280;11334;36.986;-121.936;2023-04-23T12:25:34;100963.41;;;12.49;98.00
22333;BME280;11334;36.986;-121.936;2023-04-23T12:28:03;100961.44;;;12.51;98.01
22333;BME280;11334;36.986;-121.936;2023-04-23T12:30:33;100961.44;;;12.51;98.81
22333;BME280;11334;36.986;-121.936;2023-04-23T12:33:03;100965.94;;;12.58;98.82